Time;durP1;ratioP1;P1;durP2;ratioP2;P2;SDS_P1;SDS_P2;PMS_P1;PMS_P2;Temp;Humidity;BMP_temperature;BMP_pressure;BME280_temperature;BME280_humidity;BME280_pressure;Samples;Min_cycle;Max_cycle;Signal;HPM_P1;HPM_P2
2020/12/25 00:02:40;;;;;;;9.70;6.08;;;;;;;4.58;81.34;99970.05;4888040;58;1136133;-86
2020/12/25 00:07:46;;;;;;;8.23;5.30;;;;;;;4.64;81.40;99978.00;4968937;58;1127978;-86
2020/12/25 00:12:51;;;;;;;9.13;5.50;;;;;;;4.65;81.02;99971.83;4973382;59;21102;-86
2020/12/25 00:17:57;;;;;;;20.95;13.85;;;;;;;4.65;80.78;99978.84;4877307;58;1130164;-86
2020/12/25 00:23:02;;;;;;;39.73;24.87;;;;;;;4.58;80.71;99988.38;4895859;59;1138402;-86
2020/12/25 00:28:08;;;;;;;7.40;3.97;;;;;;;4.53;80.83;100003.55;4988362;59;21132;-86
2020/12/25 00:33:13;;;;;;;50.47;28.20;;;;;;;4.53;80.84;100004.02;4992465;59;21222;-86
2020/12/25 00:38:19;;;;;;;21.63;12.23;;;;;;;4.54;80.92;100007.02;4898038;58;1136302;-86
2020/12/25 00:43:24;;;;;;;9.60;4.80;;;;;;;4.54;81.03;100011.78;4921227;58;1136318;-86
2020/12/25 00:48:30;;;;;;;11.47;6.53;;;;;;;4.56;80.93;100019.55;4981407;59;21191;-86
2020/12/25 00:53:35;;;;;;;21.37;9.77;;;;;;;4.52;80.98;100028.52;4996751;59;21342;-86
2020/12/25 00:58:42;;;;;;;2.83;1.70;;;;;;;4.52;80.98;100042.45;4987329;59;21314;-86
2020/12/25 01:03:48;;;;;;;8.67;3.27;;;;;;;4.50;81.08;100043.48;4993562;59;21171;-85
2020/12/25 01:08:54;;;;;;;9.30;4.60;;;;;;;4.47;81.19;100054.97;4986417;59;21108;-86
2020/12/25 01:13:59;;;;;;;12.03;6.10;;;;;;;4.48;81.31;100059.73;4955568;58;1132228;-86
2020/12/25 01:19:05;;;;;;;190.92;122.72;;;;;;;4.44;81.31;100064.77;4890793;58;1138348;-85
2020/12/25 01:24:11;;;;;;;7.23;6.10;;;;;;;4.42;81.45;100071.44;4960929;58;1144501;-85
2020/12/25 01:29:17;;;;;;;2.57;1.67;;;;;;;4.42;81.55;100077.14;4998987;59;21283;-85
2020/12/25 01:34:22;;;;;;;3.87;2.97;;;;;;;4.39;81.45;100083.86;4998623;59;21620;-85
2020/12/25 01:39:28;;;;;;;3.23;1.83;;;;;;;4.34;81.58;100093.75;4999166;59;21274;-85
2020/12/25 01:44:33;;;;;;;3.67;1.63;;;;;;;4.28;81.57;100092.82;4998730;59;21357;-85
2020/12/25 01:49:39;;;;;;;1.27;1.03;;;;;;;4.22;81.94;100094.85;4999072;59;21274;-85
2020/12/25 01:54:47;;;;;;;7.60;2.20;;;;;;;4.22;82.07;100105.33;4994264;59;21838;-85
2020/12/25 01:59:53;;;;;;;5.97;1.97;;;;;;;4.23;82.22;100121.87;4986580;59;21211;-85
2020/12/25 02:04:58;;;;;;;4.83;2.43;;;;;;;4.19;82.09;100122.51;4996590;59;21183;-86
2020/12/25 02:10:04;;;;;;;5.37;1.83;;;;;;;4.23;82.05;100134.96;4999066;59;21286;-85
2020/12/25 02:15:10;;;;;;;4.07;1.87;;;;;;;4.21;82.17;100138.13;4999189;59;21306;-85
2020/12/25 02:20:16;;;;;;;2.03;1.47;;;;;;;4.24;82.18;100143.19;4999062;59;21195;-85
2020/12/25 02:25:22;;;;;;;2.23;1.20;;;;;;;4.24;82.21;100149.27;4991721;59;21212;-85
2020/12/25 02:30:27;;;;;;;4.27;2.40;;;;;;;4.19;82.25;100154.38;4986606;59;21143;-85
2020/12/25 02:35:33;;;;;;;2.13;1.20;;;;;;;4.20;82.41;100166.54;4986655;59;21183;-85
2020/12/25 02:40:38;;;;;;;1.80;1.27;;;;;;;4.19;82.33;100168.31;4986611;59;21453;-85
2020/12/25 02:45:44;;;;;;;7.50;2.37;;;;;;;4.18;82.20;100173.63;4952897;59;21144;-85
2020/12/25 02:50:49;;;;;;;4.93;1.80;;;;;;;4.23;82.29;100184.23;4898716;61;21494;-85
2020/12/25 02:55:55;;;;;;;8.70;2.17;;;;;;;4.25;82.11;100192.00;4898657;60;21140;-85
2020/12/25 03:01:00;;;;;;;6.30;0.97;;;;;;;4.22;82.04;100206.09;4898602;61;21244;-85
2020/12/25 03:06:07;;;;;;;4.83;1.37;;;;;;;4.24;81.91;100202.93;4898640;61;21188;-85
2020/12/25 03:11:12;;;;;;;5.23;1.80;;;;;;;4.16;81.77;100196.42;4898495;61;21176;-85
2020/12/25 03:16:18;;;;;;;6.00;1.93;;;;;;;4.07;81.75;100196.95;4899016;60;21169;-86
2020/12/25 03:21:24;;;;;;;5.57;1.60;;;;;;;3.99;81.73;100192.13;4899222;61;21153;-86
2020/12/25 03:26:30;;;;;;;4.20;1.17;;;;;;;3.96;81.80;100194.09;4899191;59;21172;-85
2020/12/25 03:31:35;;;;;;;2.47;1.07;;;;;;;3.89;81.71;100192.27;4806366;59;1129955;-85
2020/12/25 03:36:41;;;;;;;3.97;1.30;;;;;;;3.81;81.64;100194.48;4824452;59;1134622;-86
2020/12/25 03:41:46;;;;;;;4.90;1.30;;;;;;;3.73;81.87;100204.04;4899061;60;21157;-85
2020/12/25 03:46:52;;;;;;;2.90;1.30;;;;;;;3.65;81.81;100205.39;4948041;58;21168;-85
2020/12/25 03:51:58;;;;;;;1.60;1.03;;;;;;;3.58;81.89;100204.87;4998463;59;21089;-85
2020/12/25 03:57:03;;;;;;;3.10;1.40;;;;;;;3.53;81.90;100212.10;4998519;59;21450;-86
2020/12/25 04:02:09;;;;;;;0.90;0.90;;;;;;;3.45;81.97;100215.14;4998490;59;21089;-86
2020/12/25 04:07:14;;;;;;;4.00;0.80;;;;;;;3.42;81.91;100219.22;4998322;59;21147;-85
2020/12/25 04:12:20;;;;;;;1.37;1.10;;;;;;;3.33;81.92;100226.25;4998382;59;21159;-85
2020/12/25 04:17:25;;;;;;;1.93;1.10;;;;;;;3.31;81.96;100233.78;4998569;59;21133;-85
2020/12/25 04:22:31;;;;;;;2.43;1.20;;;;;;;3.29;81.90;100234.33;4998491;59;21155;-85
2020/12/25 04:27:36;;;;;;;4.13;1.03;;;;;;;3.28;81.97;100248.31;4998485;59;21474;-85
2020/12/25 04:32:42;;;;;;;1.97;0.63;;;;;;;3.29;81.67;100244.78;4998352;59;21156;-86
2020/12/25 04:37:47;;;;;;;3.37;1.77;;;;;;;3.20;81.74;100251.34;4978317;59;21287;-85
2020/12/25 04:42:54;;;;;;;1.37;0.90;;;;;;;3.15;81.76;100260.71;4975424;59;21291;-85
2020/12/25 04:48:00;;;;;;;3.77;0.67;;;;;;;3.12;81.65;100256.94;4975302;60;21286;-85
2020/12/25 04:53:06;;;;;;;2.40;0.60;;;;;;;3.04;81.65;100265.65;4975366;60;21271;-86
2020/12/25 04:58:11;;;;;;;1.73;0.90;;;;;;;3.00;81.67;100273.25;4975314;59;21696;-85
2020/12/25 05:03:19;;;;;;;4.63;1.27;;;;;;;2.98;81.81;100275.09;4975293;60;21291;-85
2020/12/25 05:08:25;;;;;;;4.83;1.43;;;;;;;2.95;81.73;100275.70;4935755;60;21174;-85
2020/12/25 05:13:31;;;;;;;7.10;1.57;;;;;;;3.00;81.72;100284.16;4987836;59;21489;-85
2020/12/25 05:18:40;;;;;;;3.57;1.30;;;;;;;2.95;81.65;100288.75;4975327;59;21312;-85
2020/12/25 05:23:47;;;;;;;1.83;1.10;;;;;;;2.92;81.64;100292.82;4975264;60;21274;-85
2020/12/25 05:28:52;;;;;;;2.60;1.10;;;;;;;2.85;81.64;100297.98;4986810;59;21171;-86
2020/12/25 05:33:58;;;;;;;2.23;0.97;;;;;;;2.77;81.59;100308.33;4975209;59;21349;-85
2020/12/25 05:39:04;;;;;;;1.53;0.90;;;;;;;2.79;81.78;100304.34;4975111;59;21322;-85
2020/12/25 05:44:12;;;;;;;1.30;1.00;;;;;;;2.79;81.67;100304.34;4975286;60;21270;-86
2020/12/25 05:49:18;;;;;;;2.10;1.27;;;;;;;2.75;81.67;100315.39;4975075;60;21341;-85
2020/12/25 05:54:26;;;;;;;4.20;0.80;;;;;;;2.75;81.69;100317.18;4919751;60;21203;-86
2020/12/25 05:59:34;;;;;;;0.93;0.83;;;;;;;2.70;81.67;100329.61;4919830;60;21140;-86
2020/12/25 06:04:39;;;;;;;2.77;1.20;;;;;;;2.72;81.97;100329.08;4949215;59;21154;-85
2020/12/25 06:09:48;;;;;;;1.43;0.80;;;;;;;2.77;81.76;100337.52;4996938;59;21505;-85
2020/12/25 06:14:56;;;;;;;3.13;1.23;;;;;;;2.71;81.60;100345.20;4996444;59;21167;-85
2020/12/25 06:20:05;;;;;;;3.63;1.10;;;;;;;2.71;81.59;100355.64;4902221;59;1130127;-85
2020/12/25 06:25:16;;;;;;;0.87;0.60;;;;;;;2.64;81.50;100367.75;4939632;59;1134204;-85
2020/12/25 06:30:28;;;;;;;5.37;1.07;;;;;;;2.56;81.65;100371.19;4996913;59;21548;-85
2020/12/25 06:35:36;;;;;;;6.53;1.10;;;;;;;2.62;81.89;100376.11;4997085;59;21195;-86
2020/12/25 06:40:43;;;;;;;3.37;1.77;;;;;;;2.65;81.70;100389.02;4996840;59;21187;-86
2020/12/25 06:45:59;;;;;;;3.33;1.60;;;;;;;2.65;81.84;100391.63;4996960;59;21529;-85
2020/12/25 06:51:08;;;;;;;3.50;1.33;;;;;;;2.71;81.72;100400.04;4955793;59;21189;-85
2020/12/25 06:56:19;;;;;;;4.43;1.33;;;;;;;2.69;81.81;100409.70;4955061;59;21215;-85
2020/12/25 07:01:46;;;;;;;25.10;8.17;;;;;;;2.68;81.84;100419.76;4998630;59;21195;-85
2020/12/25 07:06:59;;;;;;;23.80;7.53;;;;;;;2.59;81.72;100431.10;4998541;59;21140;-85
2020/12/25 07:12:11;;;;;;;10.26;3.16;;;;;;;2.59;81.98;100438.93;4870153;59;1132187;-87
2020/12/25 07:17:18;;;;;;;;;;;;;;;2.60;82.02;100448.46;4740134;60;1136517;-86
2020/12/25 07:22:24;;;;;;;8.40;3.57;;;;;;;2.53;81.88;100454.41;4847038;61;969483;-85
2020/12/25 07:27:29;;;;;;;14.33;4.67;;;;;;;2.47;81.71;100456.83;4819554;61;21165;-85
2020/12/25 07:32:35;;;;;;;2.93;1.73;;;;;;;2.42;81.88;100471.87;4897463;60;21333;-86
2020/12/25 07:37:40;;;;;;;0.77;0.77;;;;;;;2.45;81.90;100482.14;4818500;62;21497;-86
2020/12/25 07:42:46;;;;;;;6.93;4.73;;;;;;;2.47;81.88;100489.45;4897370;61;21282;-85
2020/12/25 07:47:55;;;;;;;3.80;2.03;;;;;;;2.50;82.25;100494.15;4910723;60;21158;-87
2020/12/25 07:53:01;;;;;;;5.30;1.33;;;;;;;2.56;82.06;100499.11;4804333;61;21118;-87
2020/12/25 07:58:06;;;;;;;3.27;1.60;;;;;;;2.58;81.85;100500.74;4793288;59;1130394;-87
2020/12/25 08:03:13;;;;;;;4.67;1.60;;;;;;;2.58;81.80;100503.35;4816451;59;1134214;-87
2020/12/25 08:08:19;;;;;;;2.47;1.57;;;;;;;2.60;81.76;100511.12;4798311;59;1134120;-87
2020/12/25 08:13:25;;;;;;;15.40;8.33;;;;;;;2.62;81.75;100506.19;4801895;58;1134175;-87
2020/12/25 08:18:31;;;;;;;19.57;8.97;;;;;;;2.65;81.85;100516.96;4892646;59;21206;-87
2020/12/25 08:23:37;;;;;;;41.87;25.73;;;;;;;2.70;81.81;100516.30;4785759;59;1132049;-87
2020/12/25 08:28:44;;;;;;;3.83;2.73;;;;;;;2.72;81.59;100511.86;4781418;59;1138534;-87
2020/12/25 08:33:54;;;;;;;17.30;7.33;;;;;;;2.73;81.53;100524.86;4678778;61;1134451;-87
2020/12/25 08:39:00;;;;;;;11.83;5.40;;;;;;;2.73;81.48;100532.69;4810307;60;1136189;-87
2020/12/25 08:44:15;;;;;;;12.82;7.00;;;;;;;2.75;81.33;100537.36;4944735;58;1136515;-87
2020/12/25 08:49:28;;;;;;;12.40;4.27;;;;;;;2.72;81.48;100548.42;4983881;58;1136160;-87
2020/12/25 08:54:33;;;;;;;5.03;2.80;;;;;;;2.72;81.53;100549.27;4859268;59;1137256;-87
2020/12/25 08:59:39;;;;;;;8.27;4.07;;;;;;;2.76;81.57;100560.41;4964865;58;1134374;-86
2020/12/25 09:04:44;;;;;;;11.97;5.17;;;;;;;2.76;81.66;100568.23;5010250;58;1134137;-87
2020/12/25 09:09:50;;;;;;;10.97;5.93;;;;;;;2.74;81.57;100577.47;4974462;58;1136430;-87
2020/12/25 09:14:55;;;;;;;17.90;13.40;;;;;;;2.80;81.75;100586.33;4967639;58;1136470;-87
2020/12/25 09:20:01;;;;;;;267.57;92.00;;;;;;;2.80;81.53;100589.39;5016986;58;1138169;-87
2020/12/25 09:25:06;;;;;;;122.40;63.50;;;;;;;2.78;81.47;100599.91;4985781;58;1140433;-86
2020/12/25 09:30:12;;;;;;;53.40;31.20;;;;;;;2.77;81.29;100601.27;4841199;59;1149497;-87
2020/12/25 09:35:17;;;;;;;17.60;7.47;;;;;;;2.72;81.35;100601.95;4811515;59;1138787;-87
2020/12/25 09:40:23;;;;;;;32.80;16.55;;;;;;;2.72;80.90;100602.80;4997759;58;1136241;-87
2020/12/25 09:45:29;;;;;;;57.13;25.67;;;;;;;2.72;81.07;100598.04;4977644;58;1138486;-87
2020/12/25 09:50:34;;;;;;;44.80;20.33;;;;;;;2.79;81.20;100605.98;4979181;58;1138351;-87
2020/12/25 09:55:40;;;;;;;83.07;33.47;;;;;;;2.80;80.66;100612.90;4935924;58;1138551;-86
2020/12/25 10:00:46;;;;;;;166.63;71.07;;;;;;;2.75;80.66;100613.58;4954050;58;1138729;-87
2020/12/25 10:05:51;;;;;;;428.70;166.22;;;;;;;2.71;80.88;100602.87;4960261;58;1140606;-86
2020/12/25 10:11:00;;;;;;;309.37;91.63;;;;;;;2.65;80.83;100609.66;4948612;58;1142868;-87
2020/12/25 10:16:04;;;;;;;60.60;24.17;;;;;;;2.70;81.17;100606.39;4915642;58;1250505;-86
2020/12/25 10:21:10;;;;;;;94.93;48.70;;;;;;;2.72;81.21;100604.11;4956652;58;1138624;-86
2020/12/25 10:26:15;;;;;;;87.30;30.73;;;;;;;2.78;81.45;100610.35;4935493;58;1138398;-86
2020/12/25 10:31:21;;;;;;;54.23;21.17;;;;;;;2.83;81.25;100609.70;4964898;58;1138377;-87
2020/12/25 10:36:27;;;;;;;53.17;20.10;;;;;;;2.82;81.28;100614.53;4961612;58;1138415;-86
2020/12/25 10:41:34;;;;;;;34.03;13.03;;;;;;;2.91;81.57;100611.95;4934574;58;1138794;-86
2020/12/25 10:46:39;;;;;;;64.97;22.00;;;;;;;2.96;81.73;100616.53;5051628;58;21149;-85
2020/12/25 10:51:48;;;;;;;129.67;49.67;;;;;;;2.92;81.35;100609.73;4942391;58;1134154;-86
2020/12/25 10:56:53;;;;;;;23.13;6.60;;;;;;;2.86;81.53;100611.34;4792715;59;1140613;-86
2020/12/25 11:01:59;;;;;;;26.53;8.77;;;;;;;2.90;81.79;100608.13;4847279;59;1136281;-86
2020/12/25 11:07:04;;;;;;;9.57;4.57;;;;;;;2.89;81.70;100603.37;4683617;60;1136487;-86
2020/12/25 11:12:10;;;;;;;46.03;15.13;;;;;;;2.91;81.95;100596.28;4838498;58;1134913;-86
2020/12/25 11:17:20;;;;;;;10.10;3.87;;;;;;;2.94;81.96;100603.14;4846190;58;1138307;-86
2020/12/25 11:22:26;;;;;;;7.53;3.50;;;;;;;3.00;82.17;100588.51;4853140;58;1136628;-86
2020/12/25 11:27:32;;;;;;;23.90;8.33;;;;;;;3.07;81.84;100584.69;4861231;58;1134208;-87
2020/12/25 11:32:37;;;;;;;24.47;9.93;;;;;;;3.12;81.78;100574.88;4884036;58;1136343;-86
2020/12/25 11:37:43;;;;;;;5.40;2.73;;;;;;;3.18;81.80;100579.37;4856046;58;1136144;-86
2020/12/25 11:42:48;;;;;;;15.63;4.97;;;;;;;3.22;81.32;100581.36;4880622;58;1134206;-86
2020/12/25 11:47:54;;;;;;;43.70;17.27;;;;;;;3.18;81.35;100581.98;4863997;58;1136210;-86
2020/12/25 11:52:59;;;;;;;17.40;5.37;;;;;;;3.16;81.18;100583.83;4907152;59;1134231;-86
2020/12/25 11:58:06;;;;;;;3.22;2.20;;;;;;;3.15;81.53;100578.66;4909510;59;1136863;-86
2020/12/25 12:03:12;;;;;;;50.23;16.00;;;;;;;3.13;81.61;100592.25;4840968;59;1134192;-86
2020/12/25 12:08:17;;;;;;;31.27;9.53;;;;;;;3.18;81.13;100601.59;4855284;58;1138708;-86
2020/12/25 12:13:23;;;;;;;6.92;2.77;;;;;;;3.15;81.13;100599.11;4870289;58;1136334;-86
2020/12/25 12:18:28;;;;;;;27.63;12.77;;;;;;;3.10;80.31;100598.46;4851968;58;1134111;-87
2020/12/25 12:23:34;;;;;;;14.67;6.77;;;;;;;3.08;80.99;100603.36;4841106;58;1138424;-86
2020/12/25 12:28:40;;;;;;;9.97;5.37;;;;;;;3.10;80.67;100609.38;4849420;59;1136178;-86
2020/12/25 12:33:45;;;;;;;28.77;9.73;;;;;;;3.05;80.46;100610.91;4891483;59;1134487;-84
2020/12/25 12:38:51;;;;;;;25.07;7.70;;;;;;;3.02;80.59;100618.03;4856071;59;1136387;-86
2020/12/25 12:43:56;;;;;;;23.77;7.20;;;;;;;3.03;80.92;100621.88;4850835;58;1136265;-87
2020/12/25 12:49:02;;;;;;;33.83;14.60;;;;;;;3.03;80.80;100624.50;4899887;58;1136328;-87
2020/12/25 12:54:07;;;;;;;23.53;11.27;;;;;;;3.08;80.95;100630.80;4871054;59;1138379;-86
2020/12/25 12:59:13;;;;;;;15.57;3.70;;;;;;;3.10;81.02;100627.20;4851580;59;1138327;-87
2020/12/25 13:04:19;;;;;;;40.60;12.63;;;;;;;3.11;80.53;100627.59;4887414;58;1136699;-86
2020/12/25 13:09:25;;;;;;;57.60;21.17;;;;;;;3.04;80.67;100622.28;4904748;58;1138448;-86
2020/12/25 13:14:31;;;;;;;23.47;6.95;;;;;;;2.97;80.83;100627.37;4877347;58;1138533;-86
2020/12/25 13:19:36;;;;;;;50.73;20.70;;;;;;;2.93;81.04;100628.88;4882277;58;1136428;-87
2020/12/25 13:24:42;;;;;;;35.80;14.90;;;;;;;2.91;81.18;100632.00;4937337;58;1136321;-87
2020/12/25 13:29:47;;;;;;;23.93;8.83;;;;;;;2.91;81.44;100633.31;4972833;59;21147;-87
2020/12/25 13:34:53;;;;;;;13.20;4.57;;;;;;;2.93;81.44;100638.86;4946161;58;1132140;-87
2020/12/25 13:39:58;;;;;;;8.57;3.83;;;;;;;2.93;81.44;100633.64;4869781;58;1136472;-87
2020/12/25 13:45:04;;;;;;;12.37;4.17;;;;;;;2.91;81.66;100643.30;4896878;58;1134236;-87
2020/12/25 13:50:10;;;;;;;48.80;16.13;;;;;;;2.94;81.66;100656.69;4880274;58;1136272;-87
2020/12/25 13:55:15;;;;;;;15.75;7.20;;;;;;;2.93;81.63;100664.14;4862560;58;1138580;-87
2020/12/25 14:00:21;;;;;;;16.07;5.33;;;;;;;2.81;81.59;100665.07;4900683;58;1136205;-86
2020/12/25 14:05:26;;;;;;;41.57;16.00;;;;;;;2.63;81.84;100672.38;4900584;58;1136292;-86
2020/12/25 14:10:32;;;;;;;56.95;18.25;;;;;;;2.57;81.93;100669.20;4876356;58;1138281;-87
2020/12/25 14:15:37;;;;;;;45.70;16.63;;;;;;;2.56;82.09;100674.87;4965455;58;21595;-86
2020/12/25 14:20:43;;;;;;;17.47;6.17;;;;;;;2.61;82.11;100679.42;4866969;58;1134164;-87
2020/12/25 14:25:49;;;;;;;54.93;25.80;;;;;;;2.65;82.11;100684.92;4948414;59;1136624;-86
2020/12/25 14:30:55;;;;;;;21.53;6.93;;;;;;;2.64;82.26;100688.90;4885685;58;1138596;-86
2020/12/25 14:36:01;;;;;;;37.63;15.80;;;;;;;2.67;82.30;100699.22;4891882;58;1136376;-86
2020/12/25 14:41:08;;;;;;;20.50;9.00;;;;;;;2.54;81.84;100704.56;4919253;58;1138437;-86
2020/12/25 14:46:13;;;;;;;14.85;5.87;;;;;;;2.42;82.15;100707.23;4872794;58;1136286;-86
2020/12/25 14:51:20;;;;;;;16.00;7.30;;;;;;;2.40;82.36;100701.22;4893123;58;1136910;-86
2020/12/25 14:56:26;;;;;;;3.52;2.70;;;;;;;2.39;82.43;100700.38;4861644;59;1136507;-85
2020/12/25 15:01:40;;;;;;;6.90;2.80;;;;;;;2.43;82.57;100707.63;4853001;58;1134556;-86
2020/12/25 15:06:46;;;;;;;6.20;3.57;;;;;;;2.44;82.57;100711.94;4812096;60;1134453;-86
2020/12/25 15:11:51;;;;;;;15.07;9.57;;;;;;;2.51;82.59;100712.06;4747759;59;1134354;-87
2020/12/25 15:16:57;;;;;;;6.83;5.00;;;;;;;2.52;82.53;100708.55;4978937;58;1136158;-84
2020/12/25 15:22:03;;;;;;;5.77;3.50;;;;;;;2.49;82.42;100709.97;4930742;58;1134117;-86
2020/12/25 15:27:08;;;;;;;7.00;3.00;;;;;;;2.46;82.46;100713.55;4947844;58;1134125;-86
2020/12/25 15:32:14;;;;;;;2.83;1.55;;;;;;;2.42;82.46;100715.91;4923009;58;1134530;-87
2020/12/25 15:37:22;;;;;;;4.83;1.50;;;;;;;2.32;82.95;100717.63;4950046;58;1134323;-86
2020/12/25 15:42:28;;;;;;;5.93;2.20;;;;;;;2.23;82.88;100724.54;4959373;58;1134304;-86
2020/12/25 15:47:33;;;;;;;4.73;2.37;;;;;;;2.12;83.19;100730.19;4942583;58;1134104;-86
2020/12/25 15:52:39;;;;;;;5.60;2.10;;;;;;;2.02;83.52;100745.34;4945374;58;1134173;-86
2020/12/25 15:57:45;;;;;;;2.07;1.67;;;;;;;2.02;83.52;100745.34;4894264;58;1134865;-86
2020/12/25 16:02:53;;;;;;;2.00;1.00;;;;;;;2.00;83.50;100732.80;4952678;57;1134245;-86
2020/12/25 16:07:59;;;;;;;2.77;1.93;;;;;;;1.96;83.67;100746.05;4954084;58;1134162;-86
2020/12/25 16:13:05;;;;;;;3.07;1.80;;;;;;;1.97;83.47;100749.91;4941265;58;1134207;-86
2020/12/25 16:18:11;;;;;;;2.60;1.50;;;;;;;2.01;83.36;100749.30;4795528;60;1134149;-86
2020/12/25 16:23:16;;;;;;;3.67;2.12;;;;;;;1.98;83.60;100738.56;4976464;57;1134509;-86
2020/12/25 16:28:22;;;;;;;2.03;1.30;;;;;;;1.97;83.55;100745.14;4983472;58;1134106;-86
2020/12/25 16:33:27;;;;;;;5.00;1.98;;;;;;;1.98;83.64;100757.27;4940118;58;1134677;-86
2020/12/25 16:38:33;;;;;;;4.67;2.57;;;;;;;1.99;83.47;100762.41;4944476;58;1134339;-86
2020/12/25 16:43:39;;;;;;;10.30;5.00;;;;;;;2.01;83.41;100770.17;4990061;58;1134500;-86
2020/12/25 16:48:44;;;;;;;5.30;2.90;;;;;;;2.02;83.36;100774.03;5056809;58;21297;-86
2020/12/25 16:53:51;;;;;;;3.93;2.10;;;;;;;2.03;83.13;100776.19;4968196;58;1130025;-86
2020/12/25 16:58:56;;;;;;;6.23;3.00;;;;;;;2.00;82.85;100790.64;4947033;58;1134355;-86
2020/12/25 17:04:03;;;;;;;3.90;2.25;;;;;;;1.98;82.80;100793.34;4857412;58;1134139;-85
2020/12/25 17:09:09;;;;;;;9.87;3.80;;;;;;;1.96;82.65;100792.54;4897187;58;1134071;-86
2020/12/25 17:14:15;;;;;;;6.33;3.30;;;;;;;1.94;82.60;100788.28;4921941;58;1134256;-85
2020/12/25 17:19:21;;;;;;;4.58;2.75;;;;;;;1.87;82.30;100792.02;4905162;58;1134415;-86
2020/12/25 17:24:27;;;;;;;5.40;3.07;;;;;;;1.87;82.30;100792.02;4924515;58;1134778;-85
2020/12/25 17:29:32;;;;;;;9.17;3.73;;;;;;;1.82;82.10;100794.81;4924271;58;1134432;-86
2020/12/25 17:34:40;;;;;;;5.47;2.60;;;;;;;1.75;82.08;100790.27;4925995;58;1134326;-86
2020/12/25 17:39:46;;;;;;;8.83;4.07;;;;;;;1.75;81.92;100801.16;4923035;58;1134114;-85
2020/12/25 17:44:52;;;;;;;3.60;1.83;;;;;;;1.72;82.02;100798.20;4906235;58;1134149;-86
2020/12/25 17:49:57;;;;;;;13.50;5.63;;;;;;;1.71;81.99;100804.31;4884601;58;1134269;-86
2020/12/25 17:55:04;;;;;;;11.47;5.87;;;;;;;1.71;82.18;100803.47;4892802;58;1136315;-86
2020/12/25 18:00:09;;;;;;;11.57;4.77;;;;;;;1.74;81.85;100802.91;4911510;58;1136577;-86
2020/12/25 18:05:15;;;;;;;10.10;5.20;;;;;;;1.73;81.64;100802.96;4898917;58;1136962;-85
2020/12/25 18:10:20;;;;;;;13.90;5.13;;;;;;;1.72;81.78;100810.38;4911880;58;1136215;-85
2020/12/25 18:15:26;;;;;;;9.78;2.80;;;;;;;1.69;81.72;100809.19;4897087;58;1137105;-86
2020/12/25 18:20:32;;;;;;;20.47;3.27;;;;;;;1.67;81.50;100806.66;4894178;58;1134391;-85
2020/12/25 18:25:37;;;;;;;23.37;7.90;;;;;;;1.66;81.52;100810.63;4897890;58;1136195;-86
2020/12/25 18:30:44;;;;;;;13.30;4.73;;;;;;;1.64;81.54;100804.16;4897277;58;1136450;-86
2020/12/25 18:35:50;;;;;;;2.80;1.63;;;;;;;1.66;81.50;100796.29;4920372;58;1136319;-86
2020/12/25 18:40:55;;;;;;;4.33;1.50;;;;;;;1.63;81.47;100799.00;4893973;58;1134318;-86
2020/12/25 18:46:00;;;;;;;12.23;4.57;;;;;;;1.62;81.26;100801.20;4898994;58;1134246;-85
2020/12/25 18:51:07;;;;;;;5.10;2.20;;;;;;;1.60;81.23;100805.17;4895356;58;1136455;-85
2020/12/25 18:56:13;;;;;;;5.87;1.57;;;;;;;1.60;81.21;100817.35;4931854;58;1253198;-86
2020/12/25 19:01:19;;;;;;;3.83;1.35;;;;;;;1.57;80.92;100815.70;4894749;58;1134385;-85
2020/12/25 19:06:27;;;;;;;5.00;3.33;;;;;;;1.57;81.14;100817.00;4914496;58;1134234;-86
2020/12/25 19:11:32;;;;;;;6.83;4.12;;;;;;;1.59;80.98;100822.16;4894899;58;1134405;-86
2020/12/25 19:16:38;;;;;;;99.17;55.17;;;;;;;1.57;80.28;100815.70;4916307;58;1134065;-86
2020/12/25 19:21:44;;;;;;;48.77;28.87;;;;;;;1.59;80.52;100807.38;4723032;60;1138412;-86
2020/12/25 19:26:50;;;;;;;17.57;14.07;;;;;;;1.60;79.69;100807.77;4719016;60;1138284;-86
2020/12/25 19:31:56;;;;;;;21.97;8.87;;;;;;;1.58;79.63;100811.34;4804794;59;1138354;-86
2020/12/25 19:37:02;;;;;;;18.83;4.20;;;;;;;1.55;79.91;100815.35;4724870;60;1136296;-86
2020/12/25 19:42:11;;;;;;;29.77;7.70;;;;;;;1.52;79.75;100817.64;4916175;58;1136192;-86
2020/12/25 19:47:17;;;;;;;27.60;11.50;;;;;;;1.49;79.73;100822.95;4718912;60;1144020;-86
2020/12/25 19:52:22;;;;;;;2.57;1.93;;;;;;;1.46;79.64;100825.67;4915512;58;1138417;-87
2020/12/25 19:57:28;;;;;;;102.70;23.43;;;;;;;1.45;79.88;100827.02;4986357;58;21145;-85
2020/12/25 20:02:34;;;;;;;10.53;2.90;;;;;;;1.40;79.84;100824.56;4919162;58;1136300;-86
2020/12/25 20:07:39;;;;;;;7.23;2.47;;;;;;;1.37;79.51;100832.52;4898806;58;1136230;-86
2020/12/25 20:12:46;;;;;;;2.03;1.70;;;;;;;1.35;79.68;100831.72;4824233;59;1134770;-86
2020/12/25 20:17:52;;;;;;;5.60;2.00;;;;;;;1.30;79.77;100837.52;4745378;60;1134221;-86
2020/12/25 20:23:00;;;;;;;3.47;1.63;;;;;;;1.21;79.93;100830.89;4739739;60;1134086;-85
2020/12/25 20:28:05;;;;;;;4.77;1.67;;;;;;;1.20;80.16;100832.23;4873024;60;1134256;-86
2020/12/25 20:33:12;;;;;;;8.07;3.07;;;;;;;1.17;80.31;100826.68;4779259;59;1134116;-86
2020/12/25 20:38:17;;;;;;;6.63;2.20;;;;;;;1.16;80.70;100839.30;4844134;59;1134639;-87
2020/12/25 20:43:23;;;;;;;1.93;1.07;;;;;;;1.20;80.92;100842.66;4825590;59;1134173;-87
2020/12/25 20:48:28;;;;;;;5.45;2.25;;;;;;;1.21;80.94;100836.10;4863350;58;1134474;-85
2020/12/25 20:53:34;;;;;;;5.70;2.73;;;;;;;1.20;81.00;100833.55;4991035;58;1134085;-85
2020/12/25 20:58:39;;;;;;;3.70;1.70;;;;;;;1.19;81.03;100830.53;4952320;59;1134242;-85
2020/12/25 21:03:45;;;;;;;8.27;2.20;;;;;;;1.20;81.14;100827.88;4932637;58;1134267;-84
2020/12/25 21:08:50;;;;;;;8.30;3.10;;;;;;;1.20;81.25;100825.73;4925599;59;1134394;-84
2020/12/25 21:13:56;;;;;;;5.13;2.43;;;;;;;1.22;81.43;100820.02;4989523;59;1132111;-84
2020/12/25 21:19:01;;;;;;;8.70;3.53;;;;;;;1.24;81.40;100826.84;5008517;59;21209;-84
2020/12/25 21:24:07;;;;;;;5.30;2.93;;;;;;;1.27;81.42;100834.56;4952427;59;21205;-83
2020/12/25 21:29:13;;;;;;;4.23;2.30;;;;;;;1.30;81.54;100833.16;4929723;59;21082;-84
2020/12/25 21:34:25;;;;;;;5.57;1.87;;;;;;;1.29;81.55;100835.82;4930077;59;21346;-85
2020/12/25 21:39:26;;;;;;;8.30;3.83;;;;;;;1.33;81.61;100843.94;4960952;59;21273;-85
2020/12/25 21:44:32;;;;;;;8.00;3.67;;;;;;;1.38;81.52;100846.77;5008454;59;21500;-84
2020/12/25 21:49:37;;;;;;;7.53;3.10;;;;;;;1.35;81.56;100843.44;5007943;59;21276;-84
2020/12/25 21:54:43;;;;;;;7.00;2.87;;;;;;;1.35;81.60;100853.41;5007693;59;21312;-85
2020/12/25 21:59:53;;;;;;;5.67;2.83;;;;;;;1.34;81.65;100856.92;5007124;58;21320;-85
2020/12/25 22:04:58;;;;;;;7.23;3.60;;;;;;;1.34;81.63;100861.28;5006971;59;21277;-85
2020/12/25 22:10:05;;;;;;;6.43;3.10;;;;;;;1.35;81.68;100862.98;4953957;58;1130069;-84
2020/12/25 22:15:10;;;;;;;3.17;2.17;;;;;;;1.32;81.72;100870.89;5005155;58;1134222;-85
2020/12/25 22:20:16;;;;;;;4.80;2.23;;;;;;;1.31;81.75;100864.83;5101747;58;21702;-85
2020/12/25 22:25:21;;;;;;;5.83;1.53;;;;;;;1.30;81.88;100863.13;5102077;58;21165;-85
2020/12/25 22:30:26;;;;;;;2.23;1.73;;;;;;;1.29;81.84;100868.39;5101744;58;21498;-85
2020/12/25 22:35:33;;;;;;;3.87;2.00;;;;;;;1.29;81.85;100869.69;5102065;58;21164;-85
2020/12/25 22:40:38;;;;;;;2.30;1.70;;;;;;;1.27;81.84;100869.73;5101997;58;21530;-85
2020/12/25 22:45:45;;;;;;;3.57;1.20;;;;;;;1.25;81.90;100870.69;5101777;58;21707;-85
2020/12/25 22:50:51;;;;;;;2.17;1.53;;;;;;;1.24;82.01;100870.29;5101525;58;21158;-85
2020/12/25 22:55:56;;;;;;;1.40;1.23;;;;;;;1.25;81.92;100879.81;5101503;58;21148;-85
2020/12/25 23:01:02;;;;;;;3.97;1.87;;;;;;;1.24;81.88;100878.95;5102206;58;21157;-85
2020/12/25 23:06:07;;;;;;;2.37;1.73;;;;;;;1.22;82.01;100870.82;5102202;58;21089;-85
2020/12/25 23:11:14;;;;;;;4.83;2.00;;;;;;;1.22;82.04;100870.82;5102507;57;21154;-85
2020/12/25 23:16:19;;;;;;;5.17;1.77;;;;;;;1.25;82.04;100870.69;5102523;58;21542;-85
2020/12/25 23:21:25;;;;;;;4.90;1.87;;;;;;;1.27;82.01;100864.98;5102497;58;21202;-85
2020/12/25 23:26:31;;;;;;;3.83;1.87;;;;;;;1.24;81.99;100865.93;5101991;58;21133;-85
2020/12/25 23:31:36;;;;;;;2.23;1.37;;;;;;;1.28;82.00;100860.17;5102600;58;21144;-85